sensor_id;sensor_type;location;lat;lon;timestamp;temperature;humidity
16511;DHT22;8368;48.772;8.754;2022-10-15T00:00:42;13.10;99.90
16511;DHT22;8368;48.772;8.754;2022-10-15T00:03:07;13.10;99.90
16511;DHT22;8368;48.772;8.754;2022-10-15T00:05:36;13.10;99.90
16511;DHT22;8368;48.772;8.754;2022-10-15T00:08:02;13.10;99.90
16511;DHT22;8368;48.772;8.754;2022-10-15T00:10:27;13.10;99.90
16511;DHT22;8368;48.772;8.754;2022-10-15T00:12:53;13.20;99.90
16511;DHT22;8368;48.772;8.754;2022-10-15T00:15:18;13.20;99.90
16511;DHT22;8368;48.772;8.754;2022-10-15T00:17:44;13.20;99.90
16511;DHT22;8368;48.772;8.754;2022-10-15T00:20:10;13.20;99.90
16511;DHT22;8368;48.772;8.754;2022-10-15T00:22:36;13.20;99.90
16511;DHT22;8368;48.772;8.754;2022-10-15T00:25:03;13.20;99.90
16511;DHT22;8368;48.772;8.754;2022-10-15T00:27:29;13.30;99.90
16511;DHT22;8368;48.772;8.754;2022-10-15T00:29:54;13.30;99.90
16511;DHT22;8368;48.772;8.754;2022-10-15T00:32:20;13.30;99.90
16511;DHT22;8368;48.772;8.754;2022-10-15T00:34:46;13.40;99.90
16511;DHT22;8368;48.772;8.754;2022-10-15T00:37:11;13.30;99.90
16511;DHT22;8368;48.772;8.754;2022-10-15T00:39:37;13.30;99.90
16511;DHT22;8368;48.772;8.754;2022-10-15T00:42:03;13.30;99.90
16511;DHT22;8368;48.772;8.754;2022-10-15T00:50:20;13.40;99.90
16511;DHT22;8368;48.772;8.754;2022-10-15T00:55:09;13.40;99.90
16511;DHT22;8368;48.772;8.754;2022-10-15T00:57:36;13.40;99.90
16511;DHT22;8368;48.772;8.754;2022-10-15T01:00:06;13.40;99.90
16511;DHT22;8368;48.772;8.754;2022-10-15T01:02:32;13.40;99.90
16511;DHT22;8368;48.772;8.754;2022-10-15T01:04:58;13.40;99.90
16511;DHT22;8368;48.772;8.754;2022-10-15T01:07:24;13.40;99.90
16511;DHT22;8368;48.772;8.754;2022-10-15T01:09:49;13.40;99.90
16511;DHT22;8368;48.772;8.754;2022-10-15T01:12:24;13.40;99.90
16511;DHT22;8368;48.772;8.754;2022-10-15T01:18:13;13.40;99.90
16511;DHT22;8368;48.772;8.754;2022-10-15T01:20:51;13.40;99.90
16511;DHT22;8368;48.772;8.754;2022-10-15T01:23:55;13.40;99.90
16511;DHT22;8368;48.772;8.754;2022-10-15T01:29:36;13.50;99.90
16511;DHT22;8368;48.772;8.754;2022-10-15T01:32:26;13.50;99.90
16511;DHT22;8368;48.772;8.754;2022-10-15T01:35:05;13.50;99.90
16511;DHT22;8368;48.772;8.754;2022-10-15T01:37:41;13.50;99.90
16511;DHT22;8368;48.772;8.754;2022-10-15T01:40:14;13.50;99.90
16511;DHT22;8368;48.772;8.754;2022-10-15T01:42:57;13.50;99.90
16511;DHT22;8368;48.772;8.754;2022-10-15T01:45:38;13.50;99.90
16511;DHT22;8368;48.772;8.754;2022-10-15T01:48:08;13.60;99.90
16511;DHT22;8368;48.772;8.754;2022-10-15T01:50:39;13.60;99.90
16511;DHT22;8368;48.772;8.754;2022-10-15T01:53:08;13.60;99.90
16511;DHT22;8368;48.772;8.754;2022-10-15T01:55:35;13.60;99.90
16511;DHT22;8368;48.772;8.754;2022-10-15T01:58:03;13.60;99.90
16511;DHT22;8368;48.772;8.754;2022-10-15T02:00:29;13.60;99.90
16511;DHT22;8368;48.772;8.754;2022-10-15T02:02:59;13.60;99.90
16511;DHT22;8368;48.772;8.754;2022-10-15T02:05:29;13.70;99.90
16511;DHT22;8368;48.772;8.754;2022-10-15T02:08:27;13.70;99.90
16511;DHT22;8368;48.772;8.754;2022-10-15T02:11:04;13.70;99.90
16511;DHT22;8368;48.772;8.754;2022-10-15T02:13:57;13.70;99.90
16511;DHT22;8368;48.772;8.754;2022-10-15T02:16:36;13.80;99.90
16511;DHT22;8368;48.772;8.754;2022-10-15T02:19:24;13.80;99.90
16511;DHT22;8368;48.772;8.754;2022-10-15T02:22:05;13.80;99.90
16511;DHT22;8368;48.772;8.754;2022-10-15T02:24:43;13.80;99.90
16511;DHT22;8368;48.772;8.754;2022-10-15T02:27:13;13.80;99.90
16511;DHT22;8368;48.772;8.754;2022-10-15T02:29:42;13.80;99.90
16511;DHT22;8368;48.772;8.754;2022-10-15T02:32:10;13.80;99.90
16511;DHT22;8368;48.772;8.754;2022-10-15T02:34:37;13.80;99.90
16511;DHT22;8368;48.772;8.754;2022-10-15T02:37:04;13.80;99.90
16511;DHT22;8368;48.772;8.754;2022-10-15T02:39:32;13.90;99.90
16511;DHT22;8368;48.772;8.754;2022-10-15T02:41:58;13.90;99.90
16511;DHT22;8368;48.772;8.754;2022-10-15T02:44:24;13.90;99.90
16511;DHT22;8368;48.772;8.754;2022-10-15T02:46:49;13.90;99.90
16511;DHT22;8368;48.772;8.754;2022-10-15T02:49:15;13.90;99.90
16511;DHT22;8368;48.772;8.754;2022-10-15T02:51:40;14.00;99.90
16511;DHT22;8368;48.772;8.754;2022-10-15T02:54:06;14.00;99.90
16511;DHT22;8368;48.772;8.754;2022-10-15T02:56:32;14.00;99.90
16511;DHT22;8368;48.772;8.754;2022-10-15T02:58:58;14.00;99.90
16511;DHT22;8368;48.772;8.754;2022-10-15T03:01:24;14.00;99.90
16511;DHT22;8368;48.772;8.754;2022-10-15T03:03:49;14.00;99.90
16511;DHT22;8368;48.772;8.754;2022-10-15T03:06:15;14.10;99.90
16511;DHT22;8368;48.772;8.754;2022-10-15T03:08:41;14.10;99.90
16511;DHT22;8368;48.772;8.754;2022-10-15T03:11:07;14.20;99.90
16511;DHT22;8368;48.772;8.754;2022-10-15T03:13:35;14.20;99.90
16511;DHT22;8368;48.772;8.754;2022-10-15T03:16:06;14.20;99.90
16511;DHT22;8368;48.772;8.754;2022-10-15T03:18:31;14.20;99.90
16511;DHT22;8368;48.772;8.754;2022-10-15T03:20:57;14.20;99.90
16511;DHT22;8368;48.772;8.754;2022-10-15T03:23:23;14.30;99.90
16511;DHT22;8368;48.772;8.754;2022-10-15T03:25:49;14.20;99.90
16511;DHT22;8368;48.772;8.754;2022-10-15T03:28:15;14.30;99.90
16511;DHT22;8368;48.772;8.754;2022-10-15T03:30:44;14.20;99.90
16511;DHT22;8368;48.772;8.754;2022-10-15T03:33:09;14.20;99.90
16511;DHT22;8368;48.772;8.754;2022-10-15T03:35:35;14.30;99.90
16511;DHT22;8368;48.772;8.754;2022-10-15T03:38:01;14.30;99.90
16511;DHT22;8368;48.772;8.754;2022-10-15T03:40:27;14.30;99.90
16511;DHT22;8368;48.772;8.754;2022-10-15T03:42:52;14.30;99.90
16511;DHT22;8368;48.772;8.754;2022-10-15T03:45:18;14.30;99.90
16511;DHT22;8368;48.772;8.754;2022-10-15T03:47:44;14.30;99.90
16511;DHT22;8368;48.772;8.754;2022-10-15T03:50:10;14.30;99.90
16511;DHT22;8368;48.772;8.754;2022-10-15T03:52:36;14.40;99.90
16511;DHT22;8368;48.772;8.754;2022-10-15T03:55:03;14.30;99.90
16511;DHT22;8368;48.772;8.754;2022-10-15T03:57:29;14.30;99.90
16511;DHT22;8368;48.772;8.754;2022-10-15T03:59:55;14.30;99.90
16511;DHT22;8368;48.772;8.754;2022-10-15T04:02:20;14.40;99.90
16511;DHT22;8368;48.772;8.754;2022-10-15T04:04:46;14.30;99.90
16511;DHT22;8368;48.772;8.754;2022-10-15T04:07:11;14.30;99.90
16511;DHT22;8368;48.772;8.754;2022-10-15T04:09:37;14.30;99.90
16511;DHT22;8368;48.772;8.754;2022-10-15T04:12:03;14.30;99.90
16511;DHT22;8368;48.772;8.754;2022-10-15T04:14:29;14.30;99.90
16511;DHT22;8368;48.772;8.754;2022-10-15T04:16:55;14.30;99.90
16511;DHT22;8368;48.772;8.754;2022-10-15T04:19:20;14.30;99.90
16511;DHT22;8368;48.772;8.754;2022-10-15T04:21:46;14.30;99.90
16511;DHT22;8368;48.772;8.754;2022-10-15T04:24:11;14.30;99.90
16511;DHT22;8368;48.772;8.754;2022-10-15T04:26:37;14.20;99.90
16511;DHT22;8368;48.772;8.754;2022-10-15T04:29:03;14.20;99.90
16511;DHT22;8368;48.772;8.754;2022-10-15T04:31:29;14.10;99.90
16511;DHT22;8368;48.772;8.754;2022-10-15T04:33:54;14.20;99.90
16511;DHT22;8368;48.772;8.754;2022-10-15T04:36:20;14.20;99.90
16511;DHT22;8368;48.772;8.754;2022-10-15T04:38:46;14.20;99.90
16511;DHT22;8368;48.772;8.754;2022-10-15T04:41:11;14.10;99.90
16511;DHT22;8368;48.772;8.754;2022-10-15T04:43:38;14.20;99.90
16511;DHT22;8368;48.772;8.754;2022-10-15T04:46:05;14.10;99.90
16511;DHT22;8368;48.772;8.754;2022-10-15T04:48:33;14.10;99.90
16511;DHT22;8368;48.772;8.754;2022-10-15T04:51:25;14.10;99.90
16511;DHT22;8368;48.772;8.754;2022-10-15T04:53:51;14.10;99.90
16511;DHT22;8368;48.772;8.754;2022-10-15T04:56:19;14.10;99.90
16511;DHT22;8368;48.772;8.754;2022-10-15T04:58:47;14.10;99.90
16511;DHT22;8368;48.772;8.754;2022-10-15T05:01:15;14.10;99.90
16511;DHT22;8368;48.772;8.754;2022-10-15T05:03:42;14.10;99.90
16511;DHT22;8368;48.772;8.754;2022-10-15T05:06:11;14.00;99.90
16511;DHT22;8368;48.772;8.754;2022-10-15T05:08:38;14.00;99.90
16511;DHT22;8368;48.772;8.754;2022-10-15T05:11:12;14.00;99.90
16511;DHT22;8368;48.772;8.754;2022-10-15T05:13:38;14.00;99.90
16511;DHT22;8368;48.772;8.754;2022-10-15T05:16:15;13.90;99.90
16511;DHT22;8368;48.772;8.754;2022-10-15T05:18:42;13.90;99.90
16511;DHT22;8368;48.772;8.754;2022-10-15T05:21:09;13.90;99.90
16511;DHT22;8368;48.772;8.754;2022-10-15T05:23:35;13.90;99.90
16511;DHT22;8368;48.772;8.754;2022-10-15T05:26:11;14.00;99.90
16511;DHT22;8368;48.772;8.754;2022-10-15T05:28:36;14.00;99.90
16511;DHT22;8368;48.772;8.754;2022-10-15T05:31:13;14.00;99.90
16511;DHT22;8368;48.772;8.754;2022-10-15T05:33:39;14.00;99.90
16511;DHT22;8368;48.772;8.754;2022-10-15T05:36:17;14.00;99.90
16511;DHT22;8368;48.772;8.754;2022-10-15T05:38:44;14.00;99.90
16511;DHT22;8368;48.772;8.754;2022-10-15T05:41:09;14.00;99.90
16511;DHT22;8368;48.772;8.754;2022-10-15T05:43:35;14.00;99.90
16511;DHT22;8368;48.772;8.754;2022-10-15T05:46:00;14.00;99.90
16511;DHT22;8368;48.772;8.754;2022-10-15T05:48:26;13.90;99.90
16511;DHT22;8368;48.772;8.754;2022-10-15T05:50:52;13.90;99.90
16511;DHT22;8368;48.772;8.754;2022-10-15T05:53:18;13.90;99.90
16511;DHT22;8368;48.772;8.754;2022-10-15T05:55:43;13.90;99.90
16511;DHT22;8368;48.772;8.754;2022-10-15T05:58:09;13.90;99.90
16511;DHT22;8368;48.772;8.754;2022-10-15T06:00:35;13.90;99.90
16511;DHT22;8368;48.772;8.754;2022-10-15T06:03:00;13.90;99.90
16511;DHT22;8368;48.772;8.754;2022-10-15T06:05:26;13.90;99.90
16511;DHT22;8368;48.772;8.754;2022-10-15T06:07:52;13.90;99.90
16511;DHT22;8368;48.772;8.754;2022-10-15T06:10:17;13.90;99.90
16511;DHT22;8368;48.772;8.754;2022-10-15T06:12:48;13.90;99.90
16511;DHT22;8368;48.772;8.754;2022-10-15T06:15:15;13.90;99.90
16511;DHT22;8368;48.772;8.754;2022-10-15T06:17:40;13.90;99.90
16511;DHT22;8368;48.772;8.754;2022-10-15T06:20:06;13.90;99.90
16511;DHT22;8368;48.772;8.754;2022-10-15T06:22:32;13.90;99.90
16511;DHT22;8368;48.772;8.754;2022-10-15T06:24:57;13.90;99.90
16511;DHT22;8368;48.772;8.754;2022-10-15T06:27:23;13.90;99.90
16511;DHT22;8368;48.772;8.754;2022-10-15T06:29:48;13.90;99.90
16511;DHT22;8368;48.772;8.754;2022-10-15T06:32:14;13.90;99.90
16511;DHT22;8368;48.772;8.754;2022-10-15T06:34:39;13.90;99.90
16511;DHT22;8368;48.772;8.754;2022-10-15T06:37:05;13.90;99.90
16511;DHT22;8368;48.772;8.754;2022-10-15T06:39:30;13.90;99.90
16511;DHT22;8368;48.772;8.754;2022-10-15T06:41:56;13.90;99.90
16511;DHT22;8368;48.772;8.754;2022-10-15T06:44:21;13.90;99.90
16511;DHT22;8368;48.772;8.754;2022-10-15T06:46:47;13.90;99.90
16511;DHT22;8368;48.772;8.754;2022-10-15T06:49:12;13.90;99.90
16511;DHT22;8368;48.772;8.754;2022-10-15T06:51:38;13.90;99.90
16511;DHT22;8368;48.772;8.754;2022-10-15T06:54:03;13.90;99.90
16511;DHT22;8368;48.772;8.754;2022-10-15T06:56:29;13.90;99.90
16511;DHT22;8368;48.772;8.754;2022-10-15T06:58:54;13.90;99.90
16511;DHT22;8368;48.772;8.754;2022-10-15T07:01:20;13.90;99.90
16511;DHT22;8368;48.772;8.754;2022-10-15T07:03:50;13.90;99.90
16511;DHT22;8368;48.772;8.754;2022-10-15T07:06:15;13.90;99.90
16511;DHT22;8368;48.772;8.754;2022-10-15T07:08:41;13.90;99.90
16511;DHT22;8368;48.772;8.754;2022-10-15T07:11:07;13.90;99.90
16511;DHT22;8368;48.772;8.754;2022-10-15T07:13:34;13.90;99.90
16511;DHT22;8368;48.772;8.754;2022-10-15T07:16:08;13.90;99.90
16511;DHT22;8368;48.772;8.754;2022-10-15T07:18:34;14.00;99.90
16511;DHT22;8368;48.772;8.754;2022-10-15T07:21:00;14.00;99.90
16511;DHT22;8368;48.772;8.754;2022-10-15T07:23:26;14.10;99.90
16511;DHT22;8368;48.772;8.754;2022-10-15T07:25:52;14.10;99.90
16511;DHT22;8368;48.772;8.754;2022-10-15T07:28:18;14.10;99.90
16511;DHT22;8368;48.772;8.754;2022-10-15T07:30:43;14.20;99.90
16511;DHT22;8368;48.772;8.754;2022-10-15T07:33:09;14.20;99.90
16511;DHT22;8368;48.772;8.754;2022-10-15T07:35:36;14.20;99.90
16511;DHT22;8368;48.772;8.754;2022-10-15T07:38:02;14.30;99.90
16511;DHT22;8368;48.772;8.754;2022-10-15T07:40:28;14.20;99.90
16511;DHT22;8368;48.772;8.754;2022-10-15T07:42:56;14.20;99.90
16511;DHT22;8368;48.772;8.754;2022-10-15T07:45:22;14.20;99.90
16511;DHT22;8368;48.772;8.754;2022-10-15T07:47:48;14.20;99.90
16511;DHT22;8368;48.772;8.754;2022-10-15T07:50:14;14.30;99.90
16511;DHT22;8368;48.772;8.754;2022-10-15T07:52:40;14.30;99.90
16511;DHT22;8368;48.772;8.754;2022-10-15T07:55:06;14.30;99.90
16511;DHT22;8368;48.772;8.754;2022-10-15T07:57:31;14.30;99.90
16511;DHT22;8368;48.772;8.754;2022-10-15T07:59:57;14.30;99.90
16511;DHT22;8368;48.772;8.754;2022-10-15T08:02:22;14.40;99.90
16511;DHT22;8368;48.772;8.754;2022-10-15T08:04:48;14.50;99.90
16511;DHT22;8368;48.772;8.754;2022-10-15T08:07:14;14.50;99.90
16511;DHT22;8368;48.772;8.754;2022-10-15T08:09:39;14.60;99.90
16511;DHT22;8368;48.772;8.754;2022-10-15T08:12:05;14.70;99.90
16511;DHT22;8368;48.772;8.754;2022-10-15T08:14:35;14.80;99.90
16511;DHT22;8368;48.772;8.754;2022-10-15T08:17:02;14.90;99.90
16511;DHT22;8368;48.772;8.754;2022-10-15T08:19:28;15.00;99.90
16511;DHT22;8368;48.772;8.754;2022-10-15T08:21:53;15.00;99.90
16511;DHT22;8368;48.772;8.754;2022-10-15T08:24:19;15.10;99.90
16511;DHT22;8368;48.772;8.754;2022-10-15T08:26:45;15.10;99.90
16511;DHT22;8368;48.772;8.754;2022-10-15T08:29:11;15.00;99.90
16511;DHT22;8368;48.772;8.754;2022-10-15T08:31:38;15.00;99.90
16511;DHT22;8368;48.772;8.754;2022-10-15T08:34:03;14.90;99.90
16511;DHT22;8368;48.772;8.754;2022-10-15T08:36:29;14.90;99.90
16511;DHT22;8368;48.772;8.754;2022-10-15T08:38:55;14.90;99.90
16511;DHT22;8368;48.772;8.754;2022-10-15T08:41:53;14.80;99.90
16511;DHT22;8368;48.772;8.754;2022-10-15T08:44:30;14.80;99.90
16511;DHT22;8368;48.772;8.754;2022-10-15T08:49:57;14.70;99.90
16511;DHT22;8368;48.772;8.754;2022-10-15T08:52:39;14.70;99.90
16511;DHT22;8368;48.772;8.754;2022-10-15T08:55:12;14.80;99.90
16511;DHT22;8368;48.772;8.754;2022-10-15T08:58:14;14.70;99.90
16511;DHT22;8368;48.772;8.754;2022-10-15T09:00:58;14.80;99.90
16511;DHT22;8368;48.772;8.754;2022-10-15T09:06:25;14.80;99.90
16511;DHT22;8368;48.772;8.754;2022-10-15T09:11:50;14.80;99.90
16511;DHT22;8368;48.772;8.754;2022-10-15T09:14:28;14.80;99.90
16511;DHT22;8368;48.772;8.754;2022-10-15T09:16:55;14.80;99.90
16511;DHT22;8368;48.772;8.754;2022-10-15T09:19:23;14.90;99.90
16511;DHT22;8368;48.772;8.754;2022-10-15T09:21:51;15.00;99.90
16511;DHT22;8368;48.772;8.754;2022-10-15T09:24:24;15.10;99.90
16511;DHT22;8368;48.772;8.754;2022-10-15T09:29:56;15.20;99.90
16511;DHT22;8368;48.772;8.754;2022-10-15T09:32:36;15.30;99.90
16511;DHT22;8368;48.772;8.754;2022-10-15T09:35:25;15.40;99.90
16511;DHT22;8368;48.772;8.754;2022-10-15T09:43:30;15.50;99.90
16511;DHT22;8368;48.772;8.754;2022-10-15T09:46:01;15.70;99.90
16511;DHT22;8368;48.772;8.754;2022-10-15T09:48:29;15.80;99.90
16511;DHT22;8368;48.772;8.754;2022-10-15T09:51:05;15.90;99.90
16511;DHT22;8368;48.772;8.754;2022-10-15T09:54:00;15.90;99.90
16511;DHT22;8368;48.772;8.754;2022-10-15T09:56:41;15.90;99.90
16511;DHT22;8368;48.772;8.754;2022-10-15T09:59:21;15.80;99.90
16511;DHT22;8368;48.772;8.754;2022-10-15T10:04:41;15.80;99.90
16511;DHT22;8368;48.772;8.754;2022-10-15T10:07:07;15.80;99.90
16511;DHT22;8368;48.772;8.754;2022-10-15T10:09:54;16.00;99.90
16511;DHT22;8368;48.772;8.754;2022-10-15T10:12:24;16.00;99.90
16511;DHT22;8368;48.772;8.754;2022-10-15T10:17:22;16.30;99.90
16511;DHT22;8368;48.772;8.754;2022-10-15T10:20:25;16.40;99.90
16511;DHT22;8368;48.772;8.754;2022-10-15T10:22:55;16.60;99.90
16511;DHT22;8368;48.772;8.754;2022-10-15T10:25:40;16.50;99.90
16511;DHT22;8368;48.772;8.754;2022-10-15T10:30:52;16.30;99.90
16511;DHT22;8368;48.772;8.754;2022-10-15T10:33:33;16.20;99.90
16511;DHT22;8368;48.772;8.754;2022-10-15T10:36:00;16.20;99.90
16511;DHT22;8368;48.772;8.754;2022-10-15T10:38:29;16.10;99.90
16511;DHT22;8368;48.772;8.754;2022-10-15T10:41:00;16.00;99.90
16511;DHT22;8368;48.772;8.754;2022-10-15T10:43:30;15.90;99.90
16511;DHT22;8368;48.772;8.754;2022-10-15T10:45:59;15.80;99.90
16511;DHT22;8368;48.772;8.754;2022-10-15T10:51:32;15.80;99.90
16511;DHT22;8368;48.772;8.754;2022-10-15T10:53:58;15.70;99.90
16511;DHT22;8368;48.772;8.754;2022-10-15T10:57:00;15.60;99.90
16511;DHT22;8368;48.772;8.754;2022-10-15T10:59:32;15.60;99.90
16511;DHT22;8368;48.772;8.754;2022-10-15T11:01:58;15.70;99.90
16511;DHT22;8368;48.772;8.754;2022-10-15T11:04:32;15.70;99.90
16511;DHT22;8368;48.772;8.754;2022-10-15T11:07:09;15.70;99.90
16511;DHT22;8368;48.772;8.754;2022-10-15T11:15:16;16.00;99.90
16511;DHT22;8368;48.772;8.754;2022-10-15T11:23:53;16.50;99.90
16511;DHT22;8368;48.772;8.754;2022-10-15T11:29:04;16.70;99.90
16511;DHT22;8368;48.772;8.754;2022-10-15T11:37:14;17.00;99.90
16511;DHT22;8368;48.772;8.754;2022-10-15T11:40:05;16.90;99.90
16511;DHT22;8368;48.772;8.754;2022-10-15T11:42:42;16.80;99.90
16511;DHT22;8368;48.772;8.754;2022-10-15T11:47:53;16.50;99.90
16511;DHT22;8368;48.772;8.754;2022-10-15T11:50:34;16.40;99.90
16511;DHT22;8368;48.772;8.754;2022-10-15T11:55:45;16.20;99.90
16511;DHT22;8368;48.772;8.754;2022-10-15T12:03:55;16.10;99.90
16511;DHT22;8368;48.772;8.754;2022-10-15T12:06:26;16.20;99.90
16511;DHT22;8368;48.772;8.754;2022-10-15T12:08:55;16.10;99.90
16511;DHT22;8368;48.772;8.754;2022-10-15T12:14:12;16.00;99.90
16511;DHT22;8368;48.772;8.754;2022-10-15T12:16:51;16.00;99.90
16511;DHT22;8368;48.772;8.754;2022-10-15T12:19:28;16.00;99.90
16511;DHT22;8368;48.772;8.754;2022-10-15T12:22:00;16.10;99.90
16511;DHT22;8368;48.772;8.754;2022-10-15T12:32:39;16.00;99.90
16511;DHT22;8368;48.772;8.754;2022-10-15T12:37:45;15.80;99.90
16511;DHT22;8368;48.772;8.754;2022-10-15T12:40:29;15.80;99.90
16511;DHT22;8368;48.772;8.754;2022-10-15T12:42:58;15.70;99.90
16511;DHT22;8368;48.772;8.754;2022-10-15T12:45:52;15.70;99.90
16511;DHT22;8368;48.772;8.754;2022-10-15T12:48:26;15.60;99.90
16511;DHT22;8368;48.772;8.754;2022-10-15T12:53:44;15.70;99.90
16511;DHT22;8368;48.772;8.754;2022-10-15T13:04:09;15.80;99.90
16511;DHT22;8368;48.772;8.754;2022-10-15T13:06:37;15.80;99.90
16511;DHT22;8368;48.772;8.754;2022-10-15T13:14:28;15.70;99.90
16511;DHT22;8368;48.772;8.754;2022-10-15T13:16:55;15.60;99.90
16511;DHT22;8368;48.772;8.754;2022-10-15T13:19:26;15.50;99.90
16511;DHT22;8368;48.772;8.754;2022-10-15T13:21:57;15.50;99.90
16511;DHT22;8368;48.772;8.754;2022-10-15T13:24:25;15.50;99.90
16511;DHT22;8368;48.772;8.754;2022-10-15T13:26:52;15.40;99.90
16511;DHT22;8368;48.772;8.754;2022-10-15T13:29:23;15.50;99.90
16511;DHT22;8368;48.772;8.754;2022-10-15T13:31:50;15.50;99.90
16511;DHT22;8368;48.772;8.754;2022-10-15T13:36:44;15.40;99.90
16511;DHT22;8368;48.772;8.754;2022-10-15T13:39:37;15.40;99.90
16511;DHT22;8368;48.772;8.754;2022-10-15T13:42:12;15.40;99.90
16511;DHT22;8368;48.772;8.754;2022-10-15T13:44:38;15.40;99.90
16511;DHT22;8368;48.772;8.754;2022-10-15T13:47:38;15.30;99.90
16511;DHT22;8368;48.772;8.754;2022-10-15T13:50:20;15.30;99.90
16511;DHT22;8368;48.772;8.754;2022-10-15T13:53:03;15.30;99.90
16511;DHT22;8368;48.772;8.754;2022-10-15T13:55:37;15.30;99.90
16511;DHT22;8368;48.772;8.754;2022-10-15T13:58:12;15.30;99.90
16511;DHT22;8368;48.772;8.754;2022-10-15T14:00:42;15.30;99.90
16511;DHT22;8368;48.772;8.754;2022-10-15T14:03:16;15.20;99.90
16511;DHT22;8368;48.772;8.754;2022-10-15T14:05:44;15.30;99.90
16511;DHT22;8368;48.772;8.754;2022-10-15T14:08:23;15.30;99.90
16511;DHT22;8368;48.772;8.754;2022-10-15T14:10:52;15.30;99.90
16511;DHT22;8368;48.772;8.754;2022-10-15T14:13:18;15.20;99.90
16511;DHT22;8368;48.772;8.754;2022-10-15T14:18:36;15.20;99.90
16511;DHT22;8368;48.772;8.754;2022-10-15T14:21:10;15.30;99.90
16511;DHT22;8368;48.772;8.754;2022-10-15T14:23:36;15.40;99.90
16511;DHT22;8368;48.772;8.754;2022-10-15T14:26:03;15.40;99.90
16511;DHT22;8368;48.772;8.754;2022-10-15T14:28:31;15.50;99.90
16511;DHT22;8368;48.772;8.754;2022-10-15T14:30:58;15.50;99.90
16511;DHT22;8368;48.772;8.754;2022-10-15T14:33:43;15.60;99.90
16511;DHT22;8368;48.772;8.754;2022-10-15T14:38:46;16.00;99.90
16511;DHT22;8368;48.772;8.754;2022-10-15T14:41:30;16.10;99.90
16511;DHT22;8368;48.772;8.754;2022-10-15T14:44:01;16.20;99.90
16511;DHT22;8368;48.772;8.754;2022-10-15T14:46:35;16.30;99.90
16511;DHT22;8368;48.772;8.754;2022-10-15T14:49:02;16.40;99.90
16511;DHT22;8368;48.772;8.754;2022-10-15T14:51:27;16.40;99.90
16511;DHT22;8368;48.772;8.754;2022-10-15T14:53:54;16.50;99.90
16511;DHT22;8368;48.772;8.754;2022-10-15T14:56:29;16.40;99.90
16511;DHT22;8368;48.772;8.754;2022-10-15T14:58:57;16.40;99.90
16511;DHT22;8368;48.772;8.754;2022-10-15T15:01:23;16.40;99.90
16511;DHT22;8368;48.772;8.754;2022-10-15T15:03:53;16.40;99.90
16511;DHT22;8368;48.772;8.754;2022-10-15T15:06:19;16.30;99.90
16511;DHT22;8368;48.772;8.754;2022-10-15T15:08:45;16.30;99.90
16511;DHT22;8368;48.772;8.754;2022-10-15T15:11:13;16.30;99.90
16511;DHT22;8368;48.772;8.754;2022-10-15T15:13:41;16.30;99.90
16511;DHT22;8368;48.772;8.754;2022-10-15T15:16:11;16.30;99.90
16511;DHT22;8368;48.772;8.754;2022-10-15T15:18:37;16.20;99.90
16511;DHT22;8368;48.772;8.754;2022-10-15T15:21:06;16.10;99.90
16511;DHT22;8368;48.772;8.754;2022-10-15T15:23:34;16.20;99.90
16511;DHT22;8368;48.772;8.754;2022-10-15T15:26:00;16.20;99.90
16511;DHT22;8368;48.772;8.754;2022-10-15T15:28:26;16.20;99.90
16511;DHT22;8368;48.772;8.754;2022-10-15T15:31:03;16.30;99.90
16511;DHT22;8368;48.772;8.754;2022-10-15T15:33:31;16.20;99.90
16511;DHT22;8368;48.772;8.754;2022-10-15T15:36:06;16.10;99.90
16511;DHT22;8368;48.772;8.754;2022-10-15T15:38:32;16.00;99.90
16511;DHT22;8368;48.772;8.754;2022-10-15T15:41:20;15.90;99.90
16511;DHT22;8368;48.772;8.754;2022-10-15T15:43:46;15.80;99.90
16511;DHT22;8368;48.772;8.754;2022-10-15T15:46:13;15.70;99.90
16511;DHT22;8368;48.772;8.754;2022-10-15T15:48:39;15.70;99.90
16511;DHT22;8368;48.772;8.754;2022-10-15T15:53:32;15.50;99.90
16511;DHT22;8368;48.772;8.754;2022-10-15T15:55:58;15.50;99.90
16511;DHT22;8368;48.772;8.754;2022-10-15T15:58:23;15.40;99.90
16511;DHT22;8368;48.772;8.754;2022-10-15T16:00:49;15.30;99.90
16511;DHT22;8368;48.772;8.754;2022-10-15T16:03:14;15.40;99.90
16511;DHT22;8368;48.772;8.754;2022-10-15T16:05:40;15.30;99.90
16511;DHT22;8368;48.772;8.754;2022-10-15T16:08:07;15.30;99.90
16511;DHT22;8368;48.772;8.754;2022-10-15T16:10:33;15.20;99.90
16511;DHT22;8368;48.772;8.754;2022-10-15T16:13:00;15.20;99.90
16511;DHT22;8368;48.772;8.754;2022-10-15T16:15:26;15.20;99.90
16511;DHT22;8368;48.772;8.754;2022-10-15T16:17:51;15.10;99.90
16511;DHT22;8368;48.772;8.754;2022-10-15T16:20:17;15.10;99.90
16511;DHT22;8368;48.772;8.754;2022-10-15T16:22:43;15.10;99.90
16511;DHT22;8368;48.772;8.754;2022-10-15T16:25:09;15.10;99.90
16511;DHT22;8368;48.772;8.754;2022-10-15T16:27:35;15.10;99.90
16511;DHT22;8368;48.772;8.754;2022-10-15T16:30:01;15.10;99.90
16511;DHT22;8368;48.772;8.754;2022-10-15T16:32:27;15.00;99.90
16511;DHT22;8368;48.772;8.754;2022-10-15T16:34:53;14.90;99.90
16511;DHT22;8368;48.772;8.754;2022-10-15T16:37:18;14.90;99.90
16511;DHT22;8368;48.772;8.754;2022-10-15T16:39:44;14.90;99.90
16511;DHT22;8368;48.772;8.754;2022-10-15T16:42:09;14.80;99.90
16511;DHT22;8368;48.772;8.754;2022-10-15T16:44:37;14.80;99.90
16511;DHT22;8368;48.772;8.754;2022-10-15T16:47:03;14.70;99.90
16511;DHT22;8368;48.772;8.754;2022-10-15T16:49:28;14.70;99.90
16511;DHT22;8368;48.772;8.754;2022-10-15T16:51:54;14.70;99.90
16511;DHT22;8368;48.772;8.754;2022-10-15T16:54:20;14.70;99.90
16511;DHT22;8368;48.772;8.754;2022-10-15T16:56:45;14.70;99.90
16511;DHT22;8368;48.772;8.754;2022-10-15T16:59:11;14.60;99.90
16511;DHT22;8368;48.772;8.754;2022-10-15T17:01:36;14.60;99.90
16511;DHT22;8368;48.772;8.754;2022-10-15T17:04:02;14.60;99.90
16511;DHT22;8368;48.772;8.754;2022-10-15T17:06:29;14.50;99.90
16511;DHT22;8368;48.772;8.754;2022-10-15T17:08:56;14.50;99.90
16511;DHT22;8368;48.772;8.754;2022-10-15T17:11:25;14.50;99.90
16511;DHT22;8368;48.772;8.754;2022-10-15T17:13:53;14.50;99.90
16511;DHT22;8368;48.772;8.754;2022-10-15T17:16:22;14.40;99.90
16511;DHT22;8368;48.772;8.754;2022-10-15T17:18:49;14.40;99.90
16511;DHT22;8368;48.772;8.754;2022-10-15T17:21:18;14.40;99.90
16511;DHT22;8368;48.772;8.754;2022-10-15T17:23:44;14.40;99.90
16511;DHT22;8368;48.772;8.754;2022-10-15T17:26:12;14.30;99.90
16511;DHT22;8368;48.772;8.754;2022-10-15T17:28:38;14.40;99.90
16511;DHT22;8368;48.772;8.754;2022-10-15T17:31:10;14.40;99.90
16511;DHT22;8368;48.772;8.754;2022-10-15T17:33:37;14.30;99.90
16511;DHT22;8368;48.772;8.754;2022-10-15T17:36:08;14.40;99.90
16511;DHT22;8368;48.772;8.754;2022-10-15T17:38:34;14.40;99.90
16511;DHT22;8368;48.772;8.754;2022-10-15T17:41:08;14.40;99.90
16511;DHT22;8368;48.772;8.754;2022-10-15T17:43:34;14.40;99.90
16511;DHT22;8368;48.772;8.754;2022-10-15T17:46:04;14.40;99.90
16511;DHT22;8368;48.772;8.754;2022-10-15T17:48:30;14.30;99.90
16511;DHT22;8368;48.772;8.754;2022-10-15T17:50:58;14.30;99.90
16511;DHT22;8368;48.772;8.754;2022-10-15T17:53:24;14.30;99.90